aviador You're here:

LQBK Decoded Metar

BANJA LUKA in BOSNIA-HERCEGOVINA
Report Time2017-09-25 04:00:00
UTC Time2017-09-25 04:25:03
Flight Rules mvfr MVFR
Wind360° at 02 kt
W.Decomp.*RWY 35: 2.0 kt HW 0.3 kt RCW
Visibility6000 m
Phenomena:N/A
Clouds:Broken 048 Hf
Ceiling4,800 ft
Temp12°C (ISA -2)
Dew Point12°C (100% RH)
AAT11.9°C
QNH1019 hPa
Density Alt125 ft
Elevation400 ft
Report Wrong Elevation
Raw Report
LQBK 250400Z 36002KT 6000 BKN048 12/12 Q1019 NOSIG=

Extra information for LQBK:More info

Metar Taf Metar & Taf Last 4 Metars F.Rules Stats Wind Profile Meteogram Temp Stats Airport Information Weather charts Add Link Nearby VenuesMetar ALERT Operation Metar Decoded Social comments